Time;durP1;ratioP1;P1;durP2;ratioP2;P2;SDS_P1;SDS_P2;PMS_P1;PMS_P2;Temp;Humidity;BMP_temperature;BMP_pressure;BME280_temperature;BME280_humidity;BME280_pressure;Samples;Min_cycle;Max_cycle;Signal;HPM_P1;HPM_P2
2022/12/13 00:01:16;;;;;;;11.30;7.63;;;;;;;1.61;49.09;100984.25;5023408;28;20861;-79
2022/12/13 00:03:42;;;;;;;12.00;7.10;;;;;;;1.68;48.80;100990.75;5011076;28;20404;-78
2022/12/13 00:06:09;;;;;;;9.73;6.70;;;;;;;1.79;49.18;100987.38;5011965;28;20513;-79
2022/12/13 00:08:34;;;;;;;12.18;8.00;;;;;;;1.73;48.74;100991.25;5013160;28;20793;-79
2022/12/13 00:11:04;;;;;;;11.10;7.27;;;;;;;1.64;48.65;101003.19;5012125;28;20601;-79
2022/12/13 00:13:29;;;;;;;11.20;8.03;;;;;;;1.47;49.10;100995.66;5005655;28;20822;-79
2022/12/13 00:16:00;;;;;;;12.00;7.90;;;;;;;1.49;48.95;101004.22;5007370;28;20394;-78
2022/12/13 00:18:26;;;;;;;12.00;8.10;;;;;;;1.60;49.01;101006.94;5008710;28;20457;-79
2022/12/13 00:20:52;;;;;;;10.20;7.10;;;;;;;1.48;49.15;100999.94;5015293;28;20435;-79
2022/12/13 00:23:18;;;;;;;9.53;6.57;;;;;;;1.48;48.88;101005.16;5009297;28;20439;-79
2022/12/13 00:25:43;;;;;;;9.70;7.13;;;;;;;1.52;48.79;101012.69;5010076;28;20420;-79
2022/12/13 00:28:10;;;;;;;10.18;7.03;;;;;;;1.52;48.76;101017.06;5021370;28;20402;-79
2022/12/13 00:30:35;;;;;;;8.80;6.43;;;;;;;1.61;49.30;101026.91;5015894;28;20411;-79
2022/12/13 00:33:01;;;;;;;10.23;6.77;;;;;;;1.55;49.03;101027.31;5011697;28;20392;-80
2022/12/13 00:35:26;;;;;;;9.37;6.33;;;;;;;1.48;48.82;101032.13;5020977;28;20397;-78
2022/12/13 00:37:52;;;;;;;10.27;7.10;;;;;;;1.62;49.09;101035.56;5007983;28;20483;-79
2022/12/13 00:40:17;;;;;;;8.80;6.15;;;;;;;1.70;48.88;101039.34;5013263;28;20391;-79
2022/12/13 00:42:43;;;;;;;8.82;6.72;;;;;;;1.63;48.94;101038.06;5015481;28;20407;-79
2022/12/13 00:45:09;;;;;;;10.60;7.07;;;;;;;1.67;49.42;101038.72;5016201;28;20394;-78
2022/12/13 00:47:35;;;;;;;11.57;7.28;;;;;;;1.75;49.04;101040.78;5021296;28;20427;-79
2022/12/13 00:50:02;;;;;;;11.37;7.57;;;;;;;1.70;49.30;101041.94;5012115;28;20397;-79
2022/12/13 00:52:28;;;;;;;11.45;7.35;;;;;;;1.70;49.19;101039.34;5020942;28;20398;-80
2022/12/13 00:54:53;;;;;;;10.20;7.03;;;;;;;1.75;49.39;101049.50;5010186;28;20399;-79
2022/12/13 00:57:20;;;;;;;13.67;8.40;;;;;;;1.85;49.40;101054.91;5005736;28;20423;-79
2022/12/13 00:59:46;;;;;;;10.20;7.37;;;;;;;1.95;49.94;101055.97;5010450;28;20440;-78
2022/12/13 01:02:11;;;;;;;11.10;7.20;;;;;;;1.89;49.55;101053.75;5010763;28;20396;-78
2022/12/13 01:04:37;;;;;;;10.30;7.18;;;;;;;1.78;48.91;101058.88;5004299;28;20455;-79
2022/12/13 01:07:03;;;;;;;10.38;7.57;;;;;;;1.71;48.84;101055.84;5011474;28;20450;-79
2022/12/13 01:09:31;;;;;;;11.80;7.57;;;;;;;1.76;48.94;101058.16;5003831;28;20403;-80
2022/12/13 01:11:58;;;;;;;14.43;8.20;;;;;;;1.52;49.37;101062.31;5010061;28;20490;-79
2022/12/13 01:14:24;;;;;;;13.23;7.78;;;;;;;1.53;49.32;101064.00;5013522;28;20384;-79
2022/12/13 01:16:50;;;;;;;13.88;8.45;;;;;;;1.52;48.98;101053.66;5013320;28;20740;-78
2022/12/13 01:19:15;;;;;;;11.37;7.80;;;;;;;1.51;49.27;101055.44;5008881;28;20404;-77
2022/12/13 01:21:41;;;;;;;10.63;7.43;;;;;;;1.43;49.37;101062.94;5003639;28;20387;-79
2022/12/13 01:24:06;;;;;;;13.03;8.30;;;;;;;1.59;49.95;101067.97;5012330;28;20527;-78
2022/12/13 01:26:33;;;;;;;11.43;7.97;;;;;;;1.51;49.38;101070.25;5011564;28;20492;-79
2022/12/13 01:28:59;;;;;;;12.23;7.32;;;;;;;1.42;49.69;101063.88;5011403;28;20490;-79
2022/12/13 01:31:25;;;;;;;13.25;8.98;;;;;;;1.34;49.62;101064.38;5007426;28;20488;-79
2022/12/13 01:33:50;;;;;;;10.73;7.60;;;;;;;1.21;50.17;101068.75;5008234;28;20495;-79
2022/12/13 01:36:19;;;;;;;11.87;7.80;;;;;;;1.34;50.02;101072.22;5010497;28;20450;-79
2022/12/13 01:38:45;;;;;;;13.38;8.45;;;;;;;1.33;49.79;101077.53;5007949;28;20462;-76
2022/12/13 01:41:16;;;;;;;16.13;9.77;;;;;;;1.15;49.93;101079.56;5009409;28;20388;-78
2022/12/13 01:43:42;;;;;;;14.87;8.93;;;;;;;1.13;50.14;101081.44;5007518;28;20416;-79
2022/12/13 01:46:09;;;;;;;12.73;8.33;;;;;;;1.15;50.30;101084.81;5007834;28;20403;-79
2022/12/13 01:48:39;;;;;;;11.90;7.95;;;;;;;1.10;50.23;101079.06;5008221;28;20420;-78
2022/12/13 01:51:09;;;;;;;11.23;8.30;;;;;;;1.23;50.15;101089.53;5003348;28;20408;-78
2022/12/13 01:53:39;;;;;;;12.45;8.50;;;;;;;1.34;49.94;101085.28;5004648;28;20399;-79
2022/12/13 01:56:11;;;;;;;11.40;7.35;;;;;;;1.34;50.43;101087.06;5007688;28;20398;-79
2022/12/13 01:58:39;;;;;;;13.70;8.20;;;;;;;1.56;50.49;101075.19;5027212;28;20706;-78
2022/12/13 02:01:04;;;;;;;12.57;7.88;;;;;;;1.46;49.86;101086.25;5000216;28;20402;-79
2022/12/13 02:03:32;;;;;;;12.10;8.07;;;;;;;1.35;50.09;101083.50;5011102;28;20416;-78
2022/12/13 02:06:14;;;;;;;13.83;8.90;;;;;;;1.39;49.96;101084.13;5010615;28;20887;-79
2022/12/13 02:08:42;;;;;;;14.20;9.40;;;;;;;1.41;49.81;101082.28;5012296;28;20411;-79
2022/12/13 02:11:08;;;;;;;13.85;10.25;;;;;;;1.22;50.20;101086.06;5001757;28;20397;-77
2022/12/13 02:13:34;;;;;;;26.77;22.00;;;;;;;1.26;50.18;101090.19;5002744;28;20384;-78
2022/12/13 02:16:14;;;;;;;13.27;10.17;;;;;;;1.33;50.38;101077.53;5001671;28;20390;-78
2022/12/13 02:19:04;;;;;;;11.63;8.37;;;;;;;1.20;49.84;101071.47;5009841;28;20384;-78
2022/12/13 02:21:59;;;;;;;16.08;9.88;;;;;;;1.40;50.52;101080.59;5011567;28;20395;-77
2022/12/13 02:24:53;;;;;;;10.68;8.13;;;;;;;1.42;49.95;101086.53;5009482;28;20470;-79
2022/12/13 02:27:19;;;;;;;10.77;8.00;;;;;;;1.31;50.00;101077.66;5011061;28;20392;-78
2022/12/13 02:29:50;;;;;;;12.30;8.37;;;;;;;1.18;49.72;101083.78;5011647;28;20819;-79
2022/12/13 02:32:40;;;;;;;11.98;8.38;;;;;;;1.27;49.85;101080.56;5010204;28;20452;-78
2022/12/13 02:35:14;;;;;;;12.32;8.48;;;;;;;1.27;49.77;101070.94;5000927;28;20398;-79
2022/12/13 02:37:59;;;;;;;11.57;8.10;;;;;;;1.22;49.87;101065.19;5005546;28;20415;-79
2022/12/13 02:40:40;;;;;;;11.23;8.52;;;;;;;1.20;50.05;101059.22;5012914;28;20427;-78
2022/12/13 02:43:18;;;;;;;11.10;7.68;;;;;;;1.20;49.87;101064.44;5007060;28;20417;-78
2022/12/13 02:45:47;;;;;;;12.15;8.50;;;;;;;1.11;49.86;101076.34;5012149;28;20902;-79
2022/12/13 02:48:18;;;;;;;12.32;8.07;;;;;;;1.10;50.24;101084.28;4997078;28;20483;-79
2022/12/13 02:50:44;;;;;;;10.53;8.20;;;;;;;1.15;50.10;101090.03;5009835;28;20440;-79
2022/12/13 02:53:12;;;;;;;11.73;8.35;;;;;;;1.09;49.82;101082.59;5010988;28;20887;-78
2022/12/13 02:55:39;;;;;;;12.50;9.40;;;;;;;1.13;50.36;101081.44;5003632;28;20401;-79
2022/12/13 02:58:05;;;;;;;11.57;7.75;;;;;;;1.15;49.84;101082.19;4992216;28;20394;-77
2022/12/13 03:00:38;;;;;;;12.82;8.30;;;;;;;1.28;50.13;101079.63;5004375;28;20863;-77
2022/12/13 03:03:38;;;;;;;12.32;9.55;;;;;;;1.32;49.90;101076.72;5006060;28;20412;-77
2022/12/13 03:06:42;;;;;;;15.25;8.80;;;;;;;1.25;49.69;101078.03;5010233;28;20740;-78
2022/12/13 03:09:29;;;;;;;12.97;8.33;;;;;;;1.06;49.71;101077.56;4987404;28;20518;-78
2022/12/13 03:15:36;;;;;;;12.90;9.00;;;;;;;1.24;49.95;101073.78;5016914;28;20381;-78
2022/12/13 03:18:21;;;;;;;14.43;10.57;;;;;;;1.24;50.34;101065.94;5011210;28;20409;-78
2022/12/13 03:20:59;;;;;;;10.85;8.27;;;;;;;1.37;50.20;101065.97;5007390;28;20561;-78
2022/12/13 03:23:25;;;;;;;11.82;9.10;;;;;;;1.36;49.69;101059.06;5013066;28;20416;-78
2022/12/13 03:25:58;;;;;;;14.10;10.50;;;;;;;1.41;49.61;101054.38;5005515;28;20494;-78
2022/12/13 03:28:23;;;;;;;14.27;10.77;;;;;;;1.62;49.90;101064.31;5003332;28;20406;-78
2022/12/13 03:30:49;;;;;;;14.27;9.40;;;;;;;1.62;49.80;101065.16;5015445;28;20401;-78
2022/12/13 03:33:15;;;;;;;16.00;10.93;;;;;;;1.67;49.50;101064.84;5010608;28;20790;-78
2022/12/13 03:35:42;;;;;;;14.87;11.10;;;;;;;1.78;49.66;101062.31;5019118;28;20391;-78
2022/12/13 03:38:08;;;;;;;14.95;10.30;;;;;;;1.76;49.41;101063.38;5007755;28;20478;-79
2022/12/13 03:40:34;;;;;;;14.73;10.00;;;;;;;1.67;49.83;101068.28;5008542;28;21184;-78
2022/12/13 03:43:01;;;;;;;14.40;10.10;;;;;;;1.66;49.60;101071.84;5014237;28;20417;-77
2022/12/13 03:45:26;;;;;;;16.17;10.90;;;;;;;1.65;49.36;101071.94;5021779;28;20569;-77
2022/12/13 03:47:52;;;;;;;16.10;10.00;;;;;;;1.69;49.73;101073.41;5008260;28;20506;-78
2022/12/13 03:50:17;;;;;;;14.53;9.93;;;;;;;1.67;49.57;101080.53;5010577;28;20395;-79
2022/12/13 03:52:43;;;;;;;21.13;16.47;;;;;;;1.61;49.48;101068.72;5008678;28;20458;-78
2022/12/13 03:55:09;;;;;;;14.32;10.40;;;;;;;1.62;49.48;101072.16;5018443;28;20902;-79
2022/12/13 03:57:34;;;;;;;16.80;10.82;;;;;;;1.62;49.27;101080.84;5008957;28;20404;-78
2022/12/13 04:00:00;;;;;;;15.87;10.67;;;;;;;1.47;49.58;101082.69;5005465;28;20392;-78
2022/12/13 04:02:25;;;;;;;19.20;13.35;;;;;;;1.62;49.48;101080.84;5006725;28;20461;-78
2022/12/13 04:04:52;;;;;;;14.77;10.82;;;;;;;1.66;49.39;101095.38;5015548;28;20455;-78
2022/12/13 04:07:17;;;;;;;17.20;11.00;;;;;;;1.55;49.46;101095.25;5014078;28;20458;-78
2022/12/13 04:09:43;;;;;;;14.17;9.30;;;;;;;1.33;49.68;101087.97;5004554;28;20777;-78
2022/12/13 04:14:52;;;;;;;16.02;10.10;;;;;;;1.29;49.99;101095.19;5007910;28;20443;-79
2022/12/13 04:17:18;;;;;;;13.40;9.20;;;;;;;1.39;50.50;101105.88;5014650;28;20395;-79
2022/12/13 04:19:43;;;;;;;16.67;11.90;;;;;;;1.40;49.70;101091.88;5009620;28;20427;-78
2022/12/13 04:22:09;;;;;;;18.00;10.47;;;;;;;1.44;49.95;101095.97;5011984;28;20402;-79
2022/12/13 04:24:34;;;;;;;16.17;10.77;;;;;;;1.64;50.38;101093.78;5014488;28;20526;-78
2022/12/13 04:27:00;;;;;;;14.47;10.03;;;;;;;1.75;50.55;101101.75;5010535;28;20432;-78
2022/12/13 04:29:26;;;;;;;15.52;10.70;;;;;;;1.76;50.41;101099.97;5008930;28;20391;-79
2022/12/13 04:31:51;;;;;;;15.27;10.70;;;;;;;1.58;50.26;101105.47;5007683;28;20399;-79
2022/12/13 04:34:17;;;;;;;16.30;11.30;;;;;;;1.53;50.01;101097.97;5021221;28;20404;-78
2022/12/13 04:36:42;;;;;;;19.00;11.57;;;;;;;1.44;50.10;101109.03;5006908;28;20388;-78
2022/12/13 04:39:08;;;;;;;17.33;11.82;;;;;;;1.42;49.89;101110.88;5012318;28;20397;-78
2022/12/13 04:41:37;;;;;;;19.88;14.95;;;;;;;1.31;50.31;101124.69;5011949;28;20400;-80
2022/12/13 04:44:05;;;;;;;16.75;10.90;;;;;;;1.25;50.14;101124.22;5018559;28;20890;-78
2022/12/13 04:46:30;;;;;;;14.95;10.10;;;;;;;1.19;50.77;101129.81;5023174;28;20448;-78
2022/12/13 04:48:56;;;;;;;13.57;10.47;;;;;;;1.29;50.60;101126.53;5019712;28;20446;-79
2022/12/13 04:51:22;;;;;;;15.53;10.10;;;;;;;1.36;50.30;101123.53;5014417;28;20416;-79
2022/12/13 04:53:47;;;;;;;15.43;10.67;;;;;;;1.22;50.51;101119.19;5020814;28;20388;-79
2022/12/13 04:56:13;;;;;;;13.43;9.63;;;;;;;1.39;50.58;101133.75;5021361;28;20420;-78
2022/12/13 04:58:38;;;;;;;14.60;9.87;;;;;;;1.27;50.15;101124.97;5022316;28;20394;-78
2022/12/13 05:01:08;;;;;;;17.63;11.25;;;;;;;1.16;50.38;101130.88;5017724;28;20396;-78
2022/12/13 05:03:34;;;;;;;14.32;9.40;;;;;;;1.14;49.98;101140.59;5015297;28;20882;-78
2022/12/13 05:06:08;;;;;;;15.52;9.90;;;;;;;1.15;50.42;101147.47;5022103;28;20506;-78
2022/12/13 05:08:35;;;;;;;16.92;11.73;;;;;;;1.31;50.31;101149.94;5024331;28;20782;-79
2022/12/13 05:11:00;;;;;;;20.15;14.18;;;;;;;1.39;50.02;101147.69;5020428;28;20871;-78
2022/12/13 05:13:26;;;;;;;25.47;19.77;;;;;;;1.38;50.02;101142.53;5024567;28;20864;-79
2022/12/13 05:16:01;;;;;;;23.73;18.20;;;;;;;1.36;50.08;101154.88;5027775;28;20866;-78
2022/12/13 05:18:27;;;;;;;20.02;14.93;;;;;;;1.27;50.10;101154.53;5019715;28;20390;-79
2022/12/13 05:20:53;;;;;;;35.30;25.52;;;;;;;1.17;50.07;101144.75;5024266;28;20493;-79
2022/12/13 05:23:20;;;;;;;25.10;16.75;;;;;;;1.23;50.28;101153.03;5023032;28;20464;-79
2022/12/13 05:25:46;;;;;;;16.63;13.67;;;;;;;1.10;50.63;101149.56;5023732;28;20435;-79
2022/12/13 05:28:11;;;;;;;14.98;10.43;;;;;;;1.04;50.62;101147.31;5024213;28;20405;-79
2022/12/13 05:30:39;;;;;;;16.20;11.17;;;;;;;1.17;51.33;101152.59;5021902;28;20416;-78
2022/12/13 05:33:04;;;;;;;19.98;15.90;;;;;;;1.22;51.10;101134.88;5035214;28;20862;-78
2022/12/13 05:35:30;;;;;;;16.40;10.83;;;;;;;1.17;50.80;101135.19;5021260;28;20501;-78
2022/12/13 05:37:55;;;;;;;13.43;9.95;;;;;;;1.11;50.71;101141.59;5026411;28;20392;-78
2022/12/13 05:40:22;;;;;;;17.05;10.82;;;;;;;1.02;51.15;101147.41;5009970;28;20408;-78
2022/12/13 05:42:47;;;;;;;17.48;11.32;;;;;;;0.99;50.93;101152.00;5005801;28;20901;-77
2022/12/13 05:45:14;;;;;;;13.45;9.48;;;;;;;0.92;50.60;101152.41;5005172;28;20403;-79
2022/12/13 05:47:40;;;;;;;13.30;9.25;;;;;;;0.86;50.90;101149.31;5013677;28;20423;-78
2022/12/13 05:50:06;;;;;;;14.50;9.45;;;;;;;0.97;51.12;101153.88;5012268;28;20400;-79
2022/12/13 05:52:31;;;;;;;13.88;9.30;;;;;;;0.98;50.90;101148.56;5007795;28;20428;-79
2022/12/13 05:54:57;;;;;;;13.48;9.07;;;;;;;1.03;50.97;101146.50;5000870;28;20390;-79
2022/12/13 05:57:23;;;;;;;23.80;13.75;;;;;;;1.08;51.27;101146.19;5012086;28;20907;-79
2022/12/13 05:59:48;;;;;;;18.30;10.70;;;;;;;1.24;50.95;101141.69;5015834;28;20764;-80
2022/12/13 06:02:14;;;;;;;19.02;12.73;;;;;;;1.22;51.05;101145.31;5015347;28;20416;-78
2022/12/13 06:04:39;;;;;;;18.83;13.13;;;;;;;1.10;50.83;101139.13;5007607;28;20504;-78
2022/12/13 06:07:05;;;;;;;17.93;12.53;;;;;;;1.04;50.71;101155.97;5003419;28;20507;-78
2022/12/13 06:09:31;;;;;;;17.42;11.50;;;;;;;0.89;50.62;101160.41;5014462;28;20885;-79
2022/12/13 06:11:57;;;;;;;21.40;15.65;;;;;;;0.98;50.65;101168.59;5018455;28;20405;-79
2022/12/13 06:14:22;;;;;;;22.57;15.13;;;;;;;1.00;50.53;101167.56;5016512;28;20459;-79
2022/12/13 06:16:48;;;;;;;28.83;18.53;;;;;;;1.00;50.40;101174.56;5010334;28;20464;-79
2022/12/13 06:19:13;;;;;;;24.48;15.48;;;;;;;0.89;50.40;101168.25;5010856;28;20869;-79
2022/12/13 06:21:39;;;;;;;23.70;15.15;;;;;;;0.92;50.31;101186.31;5014171;28;20402;-79
2022/12/13 06:24:06;;;;;;;18.13;12.77;;;;;;;0.76;50.94;101181.22;5013705;28;20403;-78
2022/12/13 06:26:32;;;;;;;28.50;16.77;;;;;;;0.78;50.63;101186.34;5014302;28;20533;-78
2022/12/13 06:28:58;;;;;;;22.08;14.77;;;;;;;0.81;50.95;101194.00;5010223;28;20847;-79
2022/12/13 06:31:24;;;;;;;29.08;16.83;;;;;;;0.86;50.70;101189.31;5006129;28;20454;-77
2022/12/13 06:33:50;;;;;;;28.42;19.25;;;;;;;1.00;50.69;101209.34;5015379;28;20478;-78
2022/12/13 06:36:15;;;;;;;30.23;17.40;;;;;;;0.99;50.34;101206.81;5018171;28;20477;-78
2022/12/13 06:38:41;;;;;;;42.77;22.70;;;;;;;1.00;50.36;101214.56;5006747;28;20380;-78
2022/12/13 06:41:12;;;;;;;53.57;28.70;;;;;;;1.08;50.20;101212.31;5001233;28;20741;-80
2022/12/13 06:43:40;;;;;;;61.93;30.10;;;;;;;1.06;50.39;101198.53;5012637;28;20507;-79
2022/12/13 06:46:05;;;;;;;50.78;28.60;;;;;;;0.98;50.41;101211.22;5008316;28;20831;-79
2022/12/13 06:48:31;;;;;;;40.17;22.85;;;;;;;0.93;50.90;101219.31;5017948;28;20500;-79
2022/12/13 06:51:03;;;;;;;29.05;16.85;;;;;;;0.88;51.04;101224.00;5031838;28;20842;-77
2022/12/13 06:53:30;;;;;;;19.67;12.93;;;;;;;0.82;51.06;101226.97;5032251;28;20476;-78
2022/12/13 06:55:56;;;;;;;24.88;17.67;;;;;;;0.77;51.60;101221.19;5018230;28;20374;-78
2022/12/13 06:58:22;;;;;;;19.27;12.85;;;;;;;0.78;50.87;101227.28;5021807;28;21053;-79
2022/12/13 07:00:48;;;;;;;20.70;13.07;;;;;;;0.84;51.16;101225.09;5012861;28;20442;-77
2022/12/13 07:03:14;;;;;;;17.95;12.65;;;;;;;0.91;51.00;101233.41;5012637;28;20867;-80
2022/12/13 07:05:39;;;;;;;20.98;15.57;;;;;;;1.11;50.65;101251.25;5014549;28;20459;-80
2022/12/13 07:08:05;;;;;;;20.57;14.10;;;;;;;1.07;50.72;101239.34;5014340;28;20388;-79
2022/12/13 07:10:31;;;;;;;30.33;16.53;;;;;;;1.30;51.07;101239.69;5015635;28;20454;-79
2022/12/13 07:12:57;;;;;;;27.10;15.75;;;;;;;1.17;50.84;101236.16;5014368;28;20380;-80
2022/12/13 07:15:23;;;;;;;32.40;20.30;;;;;;;1.21;50.50;101238.50;5014109;28;20400;-78
2022/12/13 07:17:50;;;;;;;20.55;13.80;;;;;;;1.34;50.69;101244.59;5018399;28;20383;-80
2022/12/13 07:20:17;;;;;;;29.67;18.33;;;;;;;1.50;50.58;101235.81;5013796;28;20476;-80
2022/12/13 07:22:43;;;;;;;31.95;19.02;;;;;;;1.55;50.06;101243.31;5021710;28;20816;-80
2022/12/13 07:25:09;;;;;;;35.57;19.87;;;;;;;1.67;49.92;101248.59;5012742;28;20406;-79
2022/12/13 07:27:34;;;;;;;75.00;39.30;;;;;;;1.87;50.02;101255.19;5013481;28;20730;-79
2022/12/13 07:30:00;;;;;;;23.40;14.80;;;;;;;1.81;49.46;101258.16;5012782;28;20388;-82
2022/12/13 07:32:26;;;;;;;25.33;15.95;;;;;;;1.87;50.31;101255.19;5015111;28;20388;-80
2022/12/13 07:34:51;;;;;;;17.10;10.90;;;;;;;1.99;49.92;101250.06;5015602;28;20431;-79
2022/12/13 07:37:17;;;;;;;17.47;12.07;;;;;;;2.04;49.96;101248.81;5012502;28;20445;-79
2022/12/13 07:39:42;;;;;;;22.50;14.60;;;;;;;2.13;50.36;101251.78;5013532;28;20391;-78
2022/12/13 07:42:08;;;;;;;27.53;17.00;;;;;;;2.16;50.05;101246.31;5012788;28;20750;-79
2022/12/13 07:44:33;;;;;;;18.83;12.43;;;;;;;2.28;50.03;101251.56;5014615;28;20400;-82
2022/12/13 07:46:59;;;;;;;17.63;10.97;;;;;;;2.34;49.70;101255.59;5014711;28;20406;-80
2022/12/13 07:49:24;;;;;;;25.23;15.53;;;;;;;2.42;49.50;101247.22;5021000;28;20416;-79
2022/12/13 07:51:50;;;;;;;27.93;16.87;;;;;;;2.56;49.71;101248.91;5007433;28;20433;-80
2022/12/13 07:54:16;;;;;;;21.27;14.18;;;;;;;2.64;49.23;101252.63;5011948;28;20376;-80
2022/12/13 07:56:41;;;;;;;33.45;20.83;;;;;;;2.73;48.95;101259.03;5012826;28;20482;-79
2022/12/13 07:59:09;;;;;;;22.42;13.90;;;;;;;2.82;48.86;101258.38;5012275;28;20394;-80
2022/12/13 08:01:34;;;;;;;17.35;11.43;;;;;;;2.68;48.11;101256.75;5018501;28;20860;-80
2022/12/13 08:04:00;;;;;;;14.80;10.02;;;;;;;2.72;48.32;101265.22;5025141;28;20413;-80
2022/12/13 08:06:26;;;;;;;18.42;12.15;;;;;;;2.85;47.85;101252.13;5032069;28;20410;-80
2022/12/13 08:08:56;;;;;;;14.33;10.13;;;;;;;2.98;47.92;101259.94;5021776;28;20421;-80
2022/12/13 08:11:21;;;;;;;12.80;9.00;;;;;;;3.04;47.90;101252.50;5028041;28;20396;-79
2022/12/13 08:13:47;;;;;;;16.73;11.32;;;;;;;3.03;47.58;101260.47;5015502;28;20410;-80
2022/12/13 08:16:16;;;;;;;16.92;10.73;;;;;;;3.08;48.15;101247.88;5011321;28;20395;-78
2022/12/13 08:18:43;;;;;;;15.88;10.35;;;;;;;3.25;47.76;101255.38;5017451;28;20393;-79
2022/12/13 08:21:08;;;;;;;13.93;9.07;;;;;;;3.31;47.11;101248.84;5009741;28;20388;-77
2022/12/13 08:23:36;;;;;;;14.87;9.10;;;;;;;3.23;47.41;101265.13;5018605;28;20407;-90
2022/12/13 08:26:07;;;;;;;15.85;9.77;;;;;;;3.31;47.24;101253.25;5018317;28;20368;-92
2022/12/13 08:31:13;;;;;;;19.23;11.27;;;;;;;3.44;47.03;101267.19;5025069;28;21328;-79
2022/12/13 08:33:44;;;;;;;16.67;11.02;;;;;;;3.55;47.05;101263.78;5028094;28;20455;-81
2022/12/13 08:36:11;;;;;;;13.30;8.82;;;;;;;3.87;47.81;101261.44;5031209;28;20806;-79
2022/12/13 08:38:36;;;;;;;15.85;10.82;;;;;;;3.96;47.52;101255.53;5016353;28;20394;-78
2022/12/13 08:41:03;;;;;;;18.73;11.60;;;;;;;3.97;47.46;101258.97;5037659;28;20382;-81
2022/12/13 08:43:28;;;;;;;14.50;9.82;;;;;;;3.63;46.29;101243.91;5041472;28;20406;-82
2022/12/13 08:45:54;;;;;;;22.43;12.73;;;;;;;3.73;46.76;101238.84;5037527;28;20459;-80
2022/12/13 08:48:19;;;;;;;20.67;12.57;;;;;;;3.68;46.07;101237.53;5032689;28;20380;-79
2022/12/13 08:50:44;;;;;;;19.93;11.77;;;;;;;3.80;46.49;101220.88;5034954;28;20500;-79
2022/12/13 08:53:10;;;;;;;12.57;8.47;;;;;;;3.84;46.29;101219.69;5034650;28;20370;-79
2022/12/13 08:55:36;;;;;;;12.07;8.70;;;;;;;3.76;46.29;101215.03;5032783;28;20389;-80
2022/12/13 08:58:08;;;;;;;11.90;8.07;;;;;;;3.56;45.50;101215.66;5036487;28;20386;-80
2022/12/13 09:00:37;;;;;;;11.63;8.57;;;;;;;3.59;46.05;101220.66;5029071;28;20388;-81
2022/12/13 09:03:05;;;;;;;12.82;8.20;;;;;;;3.98;46.89;101218.66;5030433;28;20909;-80
2022/12/13 09:05:32;;;;;;;11.30;8.48;;;;;;;4.13;46.16;101214.91;5030684;28;20383;-79
2022/12/13 09:07:58;;;;;;;13.23;8.63;;;;;;;4.09;46.03;101200.34;5035729;28;20386;-79
2022/12/13 09:10:24;;;;;;;11.38;7.93;;;;;;;4.26;46.31;101191.19;5023818;28;20388;-79
2022/12/13 09:12:50;;;;;;;15.77;9.40;;;;;;;4.08;45.33;101193.41;5031851;28;20739;-79
2022/12/13 09:15:15;;;;;;;13.63;9.10;;;;;;;4.26;46.44;101182.47;5029256;28;20465;-80
2022/12/13 09:17:42;;;;;;;11.27;7.30;;;;;;;4.25;45.50;101180.78;5035537;28;20386;-79
2022/12/13 09:20:10;;;;;;;10.27;7.70;;;;;;;4.22;45.21;101189.75;5029332;28;20390;-82
2022/12/13 09:22:37;;;;;;;14.27;9.65;;;;;;;3.94;44.95;101177.88;5037152;28;20461;-80
2022/12/13 09:25:04;;;;;;;15.80;10.20;;;;;;;3.96;45.35;101175.97;5035819;28;20390;-81
2022/12/13 09:27:31;;;;;;;13.33;8.50;;;;;;;4.32;45.96;101179.38;5036631;28;20382;-79
2022/12/13 09:29:57;;;;;;;21.95;14.52;;;;;;;4.46;45.40;101170.44;5035376;28;20406;-80
2022/12/13 09:32:24;;;;;;;11.80;6.95;;;;;;;4.47;44.98;101170.31;5022153;28;20437;-79
2022/12/13 09:34:49;;;;;;;20.10;11.60;;;;;;;4.51;46.03;101171.75;5019989;28;20517;-79
2022/12/13 09:37:16;;;;;;;16.43;10.53;;;;;;;4.60;45.35;101170.19;5036375;28;20469;-79
2022/12/13 09:39:41;;;;;;;17.77;11.40;;;;;;;4.58;45.29;101166.88;5038475;28;20378;-80
2022/12/13 09:42:19;;;;;;;18.27;11.60;;;;;;;4.51;45.02;101181.44;5035765;28;20476;-80
2022/12/13 09:44:53;;;;;;;12.07;8.18;;;;;;;4.49;44.15;101173.66;5037108;28;20406;-80
2022/12/13 09:47:40;;;;;;;16.45;11.43;;;;;;;4.49;44.55;101167.59;5036324;28;20382;-79
2022/12/13 09:50:12;;;;;;;12.38;8.20;;;;;;;4.52;43.80;101157.69;5038813;28;20375;-80
2022/12/13 09:52:40;;;;;;;21.67;14.07;;;;;;;4.39;43.81;101160.44;5019225;28;20453;-80
2022/12/13 09:55:28;;;;;;;38.17;23.85;;;;;;;4.58;44.46;101162.44;5038577;28;20382;-80
2022/12/13 09:57:54;;;;;;;37.22;24.60;;;;;;;4.48;44.44;101152.78;5018237;28;20384;-81
2022/12/13 10:00:26;;;;;;;20.60;11.75;;;;;;;4.74;44.05;101164.72;5028414;28;20436;-79
2022/12/13 10:02:55;;;;;;;36.70;21.98;;;;;;;4.96;44.87;101150.69;5036075;28;20826;-79
2022/12/13 10:05:24;;;;;;;12.93;8.25;;;;;;;5.09;43.87;101154.97;5036949;28;20386;-79
2022/12/13 10:07:52;;;;;;;16.27;9.98;;;;;;;4.89;43.93;101154.78;5034945;28;20378;-80
2022/12/13 10:10:18;;;;;;;58.83;27.02;;;;;;;5.01;43.81;101155.59;5019904;28;20397;-82
2022/12/13 10:12:49;;;;;;;10.63;7.07;;;;;;;5.23;44.09;101152.06;5019363;28;20473;-78
2022/12/13 10:15:18;;;;;;;16.27;9.00;;;;;;;5.20;43.36;101144.41;5036059;28;20382;-78
2022/12/13 10:17:47;;;;;;;35.00;17.73;;;;;;;5.32;44.70;101137.34;5035277;28;20767;-79
2022/12/13 10:20:20;;;;;;;14.07;9.10;;;;;;;5.60;45.43;101145.59;5011864;28;20437;-79
2022/12/13 10:26:07;;;;;;;11.63;7.45;;;;;;;4.94;41.98;101139.47;5035205;28;20896;-80
2022/12/13 10:28:33;;;;;;;13.15;8.55;;;;;;;5.07;42.02;101130.63;5012939;28;20846;-80
2022/12/13 10:31:00;;;;;;;14.98;10.10;;;;;;;5.30;43.01;101119.06;5036007;28;20418;-79
2022/12/13 10:33:33;;;;;;;11.82;7.03;;;;;;;5.43;42.27;101116.25;5016415;28;20383;-82
2022/12/13 10:36:13;;;;;;;11.38;7.28;;;;;;;5.09;41.99;101108.50;5034934;28;20450;-78
2022/12/13 10:38:44;;;;;;;35.08;18.45;;;;;;;5.15;41.86;101118.53;5020163;28;20434;-78
2022/12/13 10:41:34;;;;;;;126.95;59.58;;;;;;;5.35;42.24;101111.66;5034603;28;20469;-79
2022/12/13 10:44:14;;;;;;;68.82;35.67;;;;;;;5.56;42.86;101108.19;5033392;28;20818;-79
2022/12/13 10:46:46;;;;;;;12.57;9.45;;;;;;;5.35;40.97;101103.75;5035323;28;20774;-79
2022/12/13 10:49:21;;;;;;;12.38;8.52;;;;;;;5.42;41.50;101105.88;5034738;28;20379;-78
2022/12/13 10:51:49;;;;;;;15.50;10.77;;;;;;;5.34;41.59;101104.69;5035251;28;20439;-79
2022/12/13 10:54:25;;;;;;;13.93;8.25;;;;;;;5.35;40.27;101102.94;5034721;28;20794;-79
2022/12/13 10:56:58;;;;;;;14.40;8.55;;;;;;;5.06;40.24;101103.50;5034130;28;20857;-81
2022/12/13 10:59:31;;;;;;;8.55;6.00;;;;;;;4.90;40.46;101098.66;5032948;28;20433;-76
2022/12/13 11:01:57;;;;;;;18.13;9.55;;;;;;;5.08;40.13;101093.72;5034016;28;20494;-78
2022/12/13 11:04:32;;;;;;;14.48;9.25;;;;;;;5.09;40.61;101081.41;5017447;28;20419;-78
2022/12/13 11:07:28;;;;;;;15.13;10.43;;;;;;;5.34;40.88;101082.84;5037079;28;20382;-79
2022/12/13 11:09:55;;;;;;;23.07;12.67;;;;;;;5.20;40.74;101078.72;5021619;28;20432;-80
2022/12/13 11:12:24;;;;;;;16.10;12.18;;;;;;;5.46;41.45;101087.09;5034032;28;20942;-79
2022/12/13 11:14:59;;;;;;;10.18;6.97;;;;;;;5.82;41.04;101074.44;5034289;28;20383;-79
2022/12/13 11:17:28;;;;;;;13.23;8.10;;;;;;;5.75;40.47;101075.94;5034473;28;20394;-79
2022/12/13 11:20:20;;;;;;;10.77;7.30;;;;;;;5.80;40.71;101065.84;5018644;28;20374;-78
2022/12/13 11:22:45;;;;;;;18.25;10.43;;;;;;;5.81;40.55;101064.06;5025328;28;20387;-78
2022/12/13 11:25:29;;;;;;;24.25;15.27;;;;;;;5.62;39.90;101062.13;5031799;28;20398;-78
2022/12/13 11:28:15;;;;;;;25.80;18.95;;;;;;;5.55;39.77;101072.34;5032304;28;20393;-80
2022/12/13 11:30:54;;;;;;;15.20;8.90;;;;;;;5.44;39.57;101075.00;5034250;28;20414;-80
2022/12/13 11:33:43;;;;;;;12.43;9.68;;;;;;;5.58;39.80;101066.81;5035311;28;20436;-77
2022/12/13 11:36:42;;;;;;;9.88;7.82;;;;;;;5.59;39.52;101067.66;5019820;28;20418;-79
2022/12/13 11:39:07;;;;;;;10.05;7.63;;;;;;;5.74;39.63;101064.59;5016184;28;20878;-79
2022/12/13 11:41:48;;;;;;;7.68;6.05;;;;;;;5.80;39.75;101063.22;5017615;28;20398;-81